Wainwright, AK

3:42 AM AKDT on April 29, 2017 (GMT -0800)
Wainwright

Weather History for PAWI - December, 2013

Change the Weather History Date:

Saturday, December 7, 2013

  Actual Average (PABR) Record (PABR)
Temperature  
Mean Temperature 32 °F -  
Max Temperature 35 °F -4 °F 30 °F (1972)
Min Temperature 28 °F -15 °F -36 °F (1964)
Degree Days  
Heating Degree Days 34    
Moisture  
Dew Point 28 °F    
Average Humidity 90    
Maximum Humidity 96    
Minimum Humidity 85    
Precipitation  
Precipitation 0.00 in - - ()
Sea Level Pressure  
Sea Level Pressure 29.90 in    
Wind  
Wind Speed 12 mph (SSW)    
Max Wind Speed 26 mph    
Max Gust Speed 33 mph    
Visibility 5 miles    
Events Rain , Snow    
Averages and records for this station are not official NWS values.
T = Trace of Precipitation, MM = Missing Value Source: NWS Daily Summary

Daily Weather History Graph

Daily Weather History Graph

Search for Another Location

Airport or City:

Trip Planner

Search our weather history database for the weather conditions in past years. The results will help you decide how hot, cold, wet, or windy it might be!

Date:

Astronomy

Dec. 31, 1969 Rise Set
Actual Time Sun does not set Sun does not set
Civil Twilight 11:23 AM AKST 3:39 PM AKST
Nautical Twilight 9:34 AM AKST 5:28 PM AKST
Astronomical Twilight 8:12 AM AKST 6:50 PM AKST
Moon 1:58 PM AKST (12/7) 11:05 PM AKST (12/7)
Length of Visible Light 4h 16m
Length of Day
0h 00m
Waxing Crescent, 31% of the Moon is Illuminated
Dec 7
Waxing Crescent
Dec 9
First Quarter
Dec 17
Full
Dec 25
Last Quarter
Jan 1
New

Hourly Weather History & Observations

Time (AKST) Temp. Windchill Dew Point Humidity Pressure Visibility Wind Dir Wind Speed Gust Speed Precip Events Conditions
12:19 AM 32.0 °F 22.5 °F 30.2 °F 93% 29.95 in 10.0 mi East 12.7 mph - 0.00 in Rain Light Freezing Rain
12:41 AM 32.0 °F 22.5 °F 30.2 °F 93% 29.94 in 9.0 mi East 12.7 mph - 0.00 in Rain Light Freezing Rain
12:53 AM 32.0 °F 22.5 °F 30.0 °F 92% 29.95 in 6.0 mi East 12.7 mph - 0.00 in Rain Light Freezing Rain
1:53 AM 32.0 °F 24.2 °F 30.9 °F 96% 29.94 in 4.0 mi East 9.2 mph - 0.00 in Rain Light Freezing Rain
2:00 AM 33.8 °F 27.7 °F 30.2 °F 87% 29.92 in 4.0 mi East 6.9 mph - 0.00 in Rain Light Freezing Rain
2:22 AM 33.8 °F 27.7 °F 30.2 °F 87% 29.92 in 4.0 mi East 6.9 mph - 0.00 in Rain Light Freezing Rain
2:38 AM 33.8 °F 27.7 °F 30.2 °F 87% 29.92 in 4.0 mi East 6.9 mph - 0.00 in Rain Light Freezing Rain
3:33 AM 33.8 °F 27.7 °F 30.2 °F 87% 29.91 in 5.0 mi SE 6.9 mph - 0.00 in   Overcast
3:53 AM 33.1 °F 27.7 °F 30.9 °F 92% 29.92 in 1.0 mi SE 5.8 mph - 0.00 in   Mist
3:58 AM 33.8 °F 28.6 °F 30.2 °F 87% 29.91 in 0.8 mi SE 5.8 mph - N/A   Mist
4:27 AM 33.8 °F 28.6 °F 30.2 °F 87% 29.92 in 1.0 mi South 5.8 mph - N/A   Mist
4:53 AM 33.1 °F 27.7 °F 32.0 °F 96% 29.91 in 1.2 mi South 5.8 mph - N/A   Overcast
5:15 AM 33.8 °F 28.6 °F 30.2 °F 87% 29.90 in 1.5 mi South 5.8 mph - N/A   Overcast
5:26 AM 33.8 °F 27.7 °F 30.2 °F 87% 29.91 in 1.2 mi South 6.9 mph - N/A   Overcast
5:41 AM 33.8 °F 27.7 °F 30.2 °F 87% 29.91 in 1.0 mi South 6.9 mph - N/A   Overcast
5:53 AM 34.0 °F 28.0 °F 30.9 °F 89% 29.91 in 1.2 mi South 6.9 mph - N/A   Overcast
6:09 AM 33.8 °F 24.8 °F 32.0 °F 93% 29.90 in 2.0 mi SSW 12.7 mph - N/A   Overcast
6:18 AM 35.6 °F 26.6 °F 32.0 °F 87% 29.89 in 5.0 mi SSW 13.8 mph - N/A   Overcast
6:53 AM 34.0 °F 24.2 °F 32.0 °F 92% 29.89 in 9.0 mi SSW 15.0 mph - N/A   Mostly Cloudy
7:53 AM 33.1 °F 23.9 °F 30.0 °F 89% 29.89 in 10.0 mi SW 12.7 mph - N/A   Mostly Cloudy
8:53 AM 32.0 °F 23.6 °F 30.0 °F 92% 29.89 in 3.0 mi SW 10.4 mph - 0.00 in Snow Light Snow
9:53 AM 30.9 °F 22.8 °F 28.9 °F 92% 29.89 in 9.0 mi SW 9.2 mph - 0.00 in Snow Light Snow
10:53 AM 30.9 °F 23.5 °F 28.9 °F 92% 29.89 in 3.0 mi SW 8.1 mph - 0.00 in Snow Light Snow
11:09 AM 30.2 °F 21.9 °F 28.4 °F 93% 29.89 in 2.5 mi SW 9.2 mph - 0.00 in Snow Light Snow
11:17 AM 30.2 °F 21.9 °F 28.4 °F 93% 29.88 in 3.0 mi SW 9.2 mph - 0.00 in Snow Light Snow
11:32 AM 30.2 °F 21.9 °F 28.4 °F 93% 29.88 in 2.0 mi SW 9.2 mph - 0.00 in Snow Light Snow
11:46 AM 30.2 °F 21.9 °F 28.4 °F 93% 29.88 in 2.5 mi SW 9.2 mph - 0.00 in Snow Light Snow
11:53 AM 30.9 °F 22.8 °F 28.0 °F 89% 29.88 in 2.0 mi SW 9.2 mph - 0.00 in Snow Light Snow
12:16 PM 30.2 °F 21.9 °F 28.4 °F 93% 29.87 in 3.0 mi SW 9.2 mph - 0.00 in Snow Light Snow
12:53 PM 30.0 °F 23.2 °F 28.0 °F 92% 29.86 in 4.0 mi SW 6.9 mph - 0.00 in Snow Light Snow
1:31 PM 30.2 °F 21.3 °F 26.6 °F 86% 29.86 in 2.5 mi WSW 10.4 mph - 0.00 in Snow Light Snow
1:45 PM 30.2 °F 21.9 °F 26.6 °F 86% 29.86 in 1.5 mi SW 9.2 mph - 0.00 in Snow Light Snow
1:53 PM 28.9 °F 19.8 °F 27.0 °F 92% 29.86 in 1.8 mi SW 10.4 mph - 0.00 in Snow Light Snow
2:27 PM 28.4 °F 18.0 °F 26.6 °F 93% 29.86 in 2.0 mi WSW 12.7 mph - 0.00 in Snow Light Snow
2:53 PM 28.9 °F 18.6 °F 27.0 °F 92% 29.86 in 2.5 mi WSW 12.7 mph - 0.00 in Snow Light Snow
3:03 PM 28.4 °F 18.5 °F 26.6 °F 93% 29.85 in 3.0 mi WSW 11.5 mph - 0.00 in Snow Light Snow
3:29 PM 28.4 °F 16.6 °F 26.6 °F 93% 29.85 in 3.0 mi WSW 16.1 mph - 0.00 in Snow Light Snow
3:37 PM 28.4 °F 16.2 °F 26.6 °F 93% 29.85 in 2.0 mi WSW 17.3 mph 21.9 mph 0.00 in Snow Light Snow
3:50 PM 28.4 °F 16.6 °F 26.6 °F 93% 29.85 in 4.0 mi WSW 16.1 mph - 0.00 in Snow Light Snow
3:51 PM 28.9 °F 17.7 °F 26.1 °F 89% 29.85 in 4.0 mi WSW 15.0 mph - 0.00 in Snow Light Snow
4:40 PM 28.4 °F 17.0 °F 26.6 °F 93% 29.86 in 8.0 mi WSW 15.0 mph - 0.00 in Snow Light Snow
5:25 PM 28.4 °F 16.2 °F 26.6 °F 93% 29.87 in 10.0 mi WSW 17.3 mph - 0.00 in   Overcast
5:42 PM 28.4 °F 17.0 °F 26.6 °F 93% 29.87 in 10.0 mi WSW 15.0 mph - 0.00 in   Overcast
5:53 PM 28.9 °F 17.3 °F 26.1 °F 89% 29.88 in 10.0 mi SW 16.1 mph - 0.00 in   Overcast
6:53 PM 28.9 °F 17.3 °F 25.0 °F 85% 29.90 in 10.0 mi SW 16.1 mph - N/A   Overcast
7:53 PM 28.9 °F 15.8 °F 26.1 °F 89% 29.91 in 5.0 mi SW 20.7 mph - 0.00 in Snow Light Snow
8:32 PM 30.2 °F 18.5 °F 26.6 °F 86% 29.91 in 10.0 mi SW 17.3 mph 26.5 mph 0.00 in   Overcast
8:53 PM 30.0 °F 17.2 °F 26.1 °F 85% 29.93 in 10.0 mi SW 20.7 mph - 0.00 in   Overcast
9:03 PM 30.2 °F 17.4 °F 26.6 °F 86% 29.92 in 10.0 mi SW 20.7 mph - N/A   Overcast
9:11 PM 30.2 °F 16.8 °F 26.6 °F 86% 29.92 in 9.0 mi SW 23.0 mph 28.8 mph N/A   Overcast
9:49 PM 30.2 °F 17.1 °F 26.6 °F 86% 29.94 in 8.0 mi SW 21.9 mph - N/A   Overcast
9:53 PM 30.0 °F 16.6 °F 27.0 °F 88% 29.94 in 5.0 mi SW 23.0 mph - 0.00 in Snow Light Snow
10:03 PM 30.2 °F 17.4 °F 26.6 °F 86% 29.94 in 2.5 mi SW 20.7 mph 29.9 mph 0.00 in Snow Light Snow
10:11 PM 30.2 °F 17.1 °F 26.6 °F 86% 29.94 in 5.0 mi SW 21.9 mph - 0.00 in Snow Light Snow
10:39 PM 30.2 °F 16.8 °F 26.6 °F 86% 29.95 in 2.0 mi SW 23.0 mph - 0.00 in Snow Light Snow
10:53 PM 30.0 °F 16.0 °F 27.0 °F 88% 29.96 in 4.0 mi SW 25.3 mph 32.2 mph 0.00 in Snow Light Snow
11:48 PM 30.2 °F 17.1 °F 26.6 °F 86% 29.97 in 6.0 mi SW 21.9 mph 33.4 mph 0.00 in   Overcast
11:53 PM 30.9 °F 16.9 °F 27.0 °F 85% 29.97 in 6.0 mi SW 26.5 mph 33.4 mph 0.00 in   Overcast